Time;durP1;ratioP1;P1;durP2;ratioP2;P2;SDS_P1;SDS_P2;PMS_P1;PMS_P2;Temp;Humidity;BMP_temperature;BMP_pressure;BME280_temperature;BME280_humidity;BME280_pressure;Samples;Min_cycle;Max_cycle;Signal;HPM_P1;HPM_P2
2023/11/11 00:00:52;;;;;;;29.10;14.00;;;;;;;7.13;79.62;98825.50;130801;1257;107673;-77
2023/11/11 00:04:17;;;;;;;26.90;15.50;;;;;;;7.16;79.84;98827.89;130773;1260;108585;-78
2023/11/11 00:07:23;;;;;;;26.20;15.70;;;;;;;7.20;80.24;98825.77;130737;1258;107579;-77
2023/11/11 00:10:29;;;;;;;23.70;15.10;;;;;;;7.26;80.10;98826.88;130741;1257;107661;-77
2023/11/11 00:13:35;;;;;;;25.50;15.40;;;;;;;7.29;80.25;98819.85;130850;1254;108508;-77
2023/11/11 00:16:41;;;;;;;27.10;16.10;;;;;;;7.32;80.52;98815.47;130700;1257;108767;-77
2023/11/11 00:19:47;;;;;;;25.60;16.30;;;;;;;7.33;80.68;98808.30;130703;1254;106695;-77
2023/11/11 00:22:52;;;;;;;21.30;13.00;;;;;;;7.33;80.31;98812.95;130748;1254;108642;-78
2023/11/11 00:25:58;;;;;;;29.50;14.10;;;;;;;7.33;80.16;98813.27;130715;1257;106665;-77
2023/11/11 00:29:22;;;;;;;25.20;15.90;;;;;;;7.35;80.42;98811.16;130756;1257;109126;-78
2023/11/11 00:32:28;;;;;;;24.70;15.50;;;;;;;7.37;80.92;98811.75;130679;1257;108569;-78
2023/11/11 00:35:34;;;;;;;25.40;14.70;;;;;;;7.41;80.75;98805.67;130669;1254;106792;-78
2023/11/11 00:38:39;;;;;;;27.80;14.90;;;;;;;7.43;80.71;98805.98;130634;1261;106718;-78
2023/11/11 00:41:45;;;;;;;25.60;14.70;;;;;;;7.42;80.53;98802.92;130687;1254;108496;-78
2023/11/11 00:44:51;;;;;;;23.50;14.10;;;;;;;7.40;80.58;98801.48;130669;1259;107785;-77
2023/11/11 00:47:56;;;;;;;26.00;15.80;;;;;;;7.39;80.44;98796.66;130677;1260;106424;-78
2023/11/11 00:51:01;;;;;;;27.40;16.30;;;;;;;7.37;80.55;98794.64;130692;1260;107588;-77
2023/11/11 00:54:08;;;;;;;25.00;14.50;;;;;;;7.33;80.29;98804.23;130646;1260;107057;-78
2023/11/11 00:57:14;;;;;;;25.60;14.80;;;;;;;7.32;80.67;98806.02;130801;1257;108329;-77
2023/11/11 01:00:21;;;;;;;27.00;15.40;;;;;;;7.33;80.50;98805.89;130770;1257;108738;-77
2023/11/11 01:03:27;;;;;;;23.80;15.30;;;;;;;7.35;80.79;98801.23;130727;1263;106695;-77
2023/11/11 01:06:33;;;;;;;25.50;15.20;;;;;;;7.38;80.51;98806.64;130732;1258;106374;-78
2023/11/11 01:09:39;;;;;;;28.50;15.70;;;;;;;7.43;80.70;98803.88;130622;1259;107746;-77
2023/11/11 01:12:45;;;;;;;31.00;18.50;;;;;;;7.44;80.67;98801.77;130700;1257;108735;-77
2023/11/11 01:15:52;;;;;;;26.80;16.80;;;;;;;7.42;80.72;98795.05;130649;1261;108498;-78
2023/11/11 01:18:58;;;;;;;26.00;15.60;;;;;;;7.45;80.81;98789.61;130618;1260;106608;-78
2023/11/11 01:22:05;;;;;;;23.00;13.50;;;;;;;7.46;80.76;98791.96;130657;1258;106739;-78
2023/11/11 01:25:12;;;;;;;23.80;13.00;;;;;;;7.48;80.94;98791.10;130619;1258;108431;-78
2023/11/11 01:28:18;;;;;;;25.60;16.30;;;;;;;7.51;81.00;98788.64;130698;1257;106666;-77
2023/11/11 01:31:24;;;;;;;24.40;14.60;;;;;;;7.55;81.00;98780.04;130665;1257;106703;-78
2023/11/11 01:34:29;;;;;;;30.80;16.30;;;;;;;7.59;80.90;98776.80;130708;1257;108549;-78
2023/11/11 01:37:35;;;;;;;37.60;18.50;;;;;;;7.61;81.08;98779.55;130712;1254;107196;-78
2023/11/11 01:40:41;;;;;;;43.80;20.70;;;;;;;7.62;80.94;98782.83;130787;1253;106718;-77
2023/11/11 01:43:47;;;;;;;40.60;20.90;;;;;;;7.62;80.97;98780.01;130840;1253;107635;-78
2023/11/11 01:46:53;;;;;;;37.00;19.80;;;;;;;7.61;80.89;98776.41;130711;1254;106399;-78
2023/11/11 01:49:59;;;;;;;25.30;14.80;;;;;;;7.58;81.23;98775.84;130684;1254;108484;-78
2023/11/11 01:53:06;;;;;;;23.70;13.70;;;;;;;7.55;81.14;98775.16;130684;1257;106982;-77
2023/11/11 01:56:13;;;;;;;22.60;14.00;;;;;;;7.55;81.24;98773.66;130818;1254;106767;-77
2023/11/11 01:59:20;;;;;;;24.80;14.80;;;;;;;7.58;81.28;98768.21;130730;1258;107222;-78
2023/11/11 02:02:25;;;;;;;25.40;15.40;;;;;;;7.61;81.38;98763.83;130612;1258;107349;-78
2023/11/11 02:05:32;;;;;;;38.30;19.30;;;;;;;7.61;81.49;98766.69;130707;1257;108685;-77
2023/11/11 02:08:38;;;;;;;69.00;28.20;;;;;;;7.60;81.25;98767.45;130688;1257;106728;-77
2023/11/11 02:11:45;;;;;;;51.90;24.30;;;;;;;7.60;81.30;98770.83;130723;1259;108658;-78
2023/11/11 02:14:51;;;;;;;57.90;25.80;;;;;;;7.59;81.28;98766.16;130675;1259;108543;-78
2023/11/11 02:17:59;;;;;;;60.20;26.10;;;;;;;7.57;81.35;98763.44;130726;1254;107670;-78
2023/11/11 02:21:06;;;;;;;52.40;23.20;;;;;;;7.55;81.42;98774.81;130767;1268;106950;-78
2023/11/11 02:24:12;;;;;;;52.90;24.00;;;;;;;7.56;81.47;98781.69;130830;1260;107100;-77
2023/11/11 02:27:18;;;;;;;37.80;20.00;;;;;;;7.60;81.58;98774.02;130694;1254;107972;-78
2023/11/11 02:30:23;;;;;;;42.80;22.10;;;;;;;7.64;81.51;98774.60;130719;1259;107611;-77
2023/11/11 02:33:29;;;;;;;37.30;19.90;;;;;;;7.67;81.62;98776.05;130606;1254;106568;-78
2023/11/11 02:36:53;;;;;;;36.00;19.20;;;;;;;7.67;81.65;98770.42;130760;1258;109100;-77
2023/11/11 02:40:16;;;;;;;34.40;19.30;;;;;;;7.70;81.64;98774.05;130520;1259;108963;-78
2023/11/11 02:43:22;;;;;;;30.90;18.30;;;;;;;7.69;81.59;98774.13;130536;1255;108417;-80
2023/11/11 02:46:27;;;;;;;24.30;13.80;;;;;;;7.67;81.77;98767.59;130591;1261;107995;-79
2023/11/11 02:49:33;;;;;;;20.90;12.30;;;;;;;7.66;81.72;98768.04;130635;1258;108633;-77
2023/11/11 02:52:39;;;;;;;25.00;14.40;;;;;;;7.67;81.88;98766.99;130724;1257;105834;-78
2023/11/11 02:55:45;;;;;;;21.50;13.70;;;;;;;7.71;81.76;98765.21;130715;1254;106715;-79
2023/11/11 02:58:51;;;;;;;21.90;12.80;;;;;;;7.74;81.92;98763.78;130856;1254;107647;-78
2023/11/11 03:01:57;;;;;;;26.80;14.40;;;;;;;7.76;81.72;98758.08;130726;1257;107839;-80
2023/11/11 03:05:03;;;;;;;20.60;13.00;;;;;;;7.78;81.88;98760.17;130713;1257;107522;-78
2023/11/11 03:08:08;;;;;;;22.80;13.60;;;;;;;7.79;81.83;98754.44;130768;1257;108125;-77
2023/11/11 03:11:15;;;;;;;33.60;19.60;;;;;;;7.77;81.94;98757.30;130748;1257;106957;-77
2023/11/11 03:14:25;;;;;;;32.90;17.10;;;;;;;7.73;82.21;98752.37;130623;1254;106709;-77
2023/11/11 03:17:32;;;;;;;29.90;16.90;;;;;;;7.71;82.04;98750.31;130688;1259;107419;-77
2023/11/11 03:20:40;;;;;;;35.30;19.10;;;;;;;7.73;82.18;98745.90;130830;1259;106823;-78
2023/11/11 03:23:45;;;;;;;33.00;18.10;;;;;;;7.77;82.15;98742.08;130714;1254;106602;-77
2023/11/11 03:26:52;;;;;;;33.40;19.50;;;;;;;7.80;82.29;98740.13;130657;1257;106299;-77
2023/11/11 03:29:58;;;;;;;34.50;20.20;;;;;;;7.81;82.23;98739.48;130774;1257;108596;-78
2023/11/11 03:33:04;;;;;;;32.70;18.40;;;;;;;7.82;82.30;98734.41;130720;1259;106554;-77
2023/11/11 03:36:10;;;;;;;35.80;20.80;;;;;;;7.81;82.31;98733.77;130713;1253;106408;-78
2023/11/11 03:39:16;;;;;;;36.70;19.00;;;;;;;7.81;82.48;98725.66;130695;1256;107503;-78
2023/11/11 03:42:22;;;;;;;27.50;14.90;;;;;;;7.80;82.40;98723.86;130717;1254;107461;-77
2023/11/11 03:45:28;;;;;;;25.40;12.60;;;;;;;7.77;82.44;98722.53;130722;1259;106968;-78
2023/11/11 03:48:33;;;;;;;24.70;13.90;;;;;;;7.78;82.62;98719.09;130703;1254;108591;-78
2023/11/11 03:51:39;;;;;;;22.40;13.30;;;;;;;7.80;82.79;98721.67;130742;1257;106579;-80
2023/11/11 03:54:44;;;;;;;25.30;14.20;;;;;;;7.82;82.64;98720.74;130760;1257;106553;-78
2023/11/11 03:57:50;;;;;;;25.10;14.20;;;;;;;7.83;82.47;98717.61;130857;1254;106448;-78
2023/11/11 04:00:56;;;;;;;24.70;16.10;;;;;;;7.83;82.56;98716.06;130668;1257;107610;-77
2023/11/11 04:04:02;;;;;;;25.50;15.50;;;;;;;7.82;82.48;98716.48;130654;1260;107921;-77
2023/11/11 04:07:09;;;;;;;27.30;16.50;;;;;;;7.80;82.52;98712.64;130758;1260;108170;-77
2023/11/11 04:10:17;;;;;;;23.10;14.00;;;;;;;7.75;82.57;98709.65;130692;1260;107699;-77
2023/11/11 04:13:23;;;;;;;23.50;13.70;;;;;;;7.72;82.70;98704.52;130786;1257;107679;-78
2023/11/11 04:16:29;;;;;;;24.70;15.20;;;;;;;7.73;82.72;98708.04;130760;1256;109374;-79
2023/11/11 04:19:38;;;;;;;24.10;15.50;;;;;;;7.74;82.95;98705.91;130727;1257;106673;-78
2023/11/11 04:22:44;;;;;;;23.50;15.10;;;;;;;7.76;82.91;98705.16;130754;1257;107748;-78
2023/11/11 04:25:50;;;;;;;21.30;14.60;;;;;;;7.78;82.77;98702.50;130679;1260;107766;-77
2023/11/11 04:28:58;;;;;;;23.00;14.80;;;;;;;7.76;82.74;98697.13;130762;1258;107697;-77
2023/11/11 04:32:04;;;;;;;20.80;14.10;;;;;;;7.75;82.85;98697.34;130836;1253;107032;-77
2023/11/11 04:35:10;;;;;;;21.90;14.50;;;;;;;7.73;82.64;98694.13;130757;1257;109041;-78
2023/11/11 04:38:16;;;;;;;20.80;13.20;;;;;;;7.70;82.68;98688.89;130862;1255;107726;-78
2023/11/11 04:41:23;;;;;;;19.00;12.50;;;;;;;7.67;82.71;98689.31;130920;1254;107516;-78
2023/11/11 04:44:30;;;;;;;22.50;14.00;;;;;;;7.68;82.78;98691.96;130777;1257;107776;-79
2023/11/11 04:47:35;;;;;;;20.50;13.30;;;;;;;7.69;82.83;98688.84;130981;1257;107115;-78
2023/11/11 04:50:41;;;;;;;21.00;12.60;;;;;;;7.70;82.84;98688.83;130789;1257;106836;-77
2023/11/11 04:53:47;;;;;;;19.80;12.70;;;;;;;7.71;82.76;98686.30;130919;1256;106570;-78
2023/11/11 04:56:54;;;;;;;19.70;13.80;;;;;;;7.69;82.88;98686.84;130979;1254;108644;-79
2023/11/11 04:59:59;;;;;;;20.50;13.60;;;;;;;7.67;82.72;98684.77;130955;1258;107745;-78
2023/11/11 05:03:05;;;;;;;22.20;14.50;;;;;;;7.61;82.83;98686.65;130850;1254;106376;-79
2023/11/11 05:06:11;;;;;;;26.50;15.10;;;;;;;7.54;82.78;98688.73;130892;1258;107118;-79
2023/11/11 05:09:17;;;;;;;25.60;14.40;;;;;;;7.50;82.87;98688.82;130995;1257;106420;-78
2023/11/11 05:12:23;;;;;;;27.10;16.90;;;;;;;7.47;82.74;98689.05;130935;1254;106855;-78
2023/11/11 05:15:30;;;;;;;24.70;16.70;;;;;;;7.47;82.71;98694.79;130677;1257;107534;-78
2023/11/11 05:18:36;;;;;;;26.80;17.40;;;;;;;7.44;82.87;98694.50;130834;1254;107149;-78
2023/11/11 05:21:42;;;;;;;25.20;16.40;;;;;;;7.46;82.83;98701.80;130752;1257;106701;-78
2023/11/11 05:24:48;;;;;;;25.60;16.70;;;;;;;7.43;82.85;98705.79;130777;1259;108610;-77
2023/11/11 05:27:53;;;;;;;25.10;15.60;;;;;;;7.40;82.69;98704.04;131068;1253;107742;-77
2023/11/11 05:30:59;;;;;;;26.00;15.90;;;;;;;7.37;82.85;98707.92;131216;1256;107442;-79
2023/11/11 05:34:05;;;;;;;22.70;14.80;;;;;;;7.32;82.62;98708.80;130785;1254;107976;-78
2023/11/11 05:37:10;;;;;;;21.30;13.40;;;;;;;7.27;82.82;98709.16;130897;1258;106822;-77
2023/11/11 05:40:18;;;;;;;23.90;13.90;;;;;;;7.25;83.18;98706.41;130664;1258;108600;-78
2023/11/11 05:43:25;;;;;;;26.10;16.00;;;;;;;7.26;82.72;98699.21;130641;1258;107623;-77
2023/11/11 05:46:30;;;;;;;24.70;14.80;;;;;;;7.28;82.96;98700.42;130666;1254;107181;-77
2023/11/11 05:49:36;;;;;;;24.70;15.50;;;;;;;7.30;83.05;98704.99;130752;1254;106307;-78
2023/11/11 05:52:42;;;;;;;28.00;17.70;;;;;;;7.30;82.71;98709.62;130814;1254;108659;-77
2023/11/11 05:55:47;;;;;;;28.40;16.40;;;;;;;7.31;82.98;98704.29;130664;1254;108753;-78
2023/11/11 05:58:53;;;;;;;20.70;14.10;;;;;;;7.31;82.80;98705.76;131047;1259;107701;-79
2023/11/11 06:02:03;;;;;;;35.20;19.80;;;;;;;7.30;82.75;98707.48;130784;1256;107699;-77
2023/11/11 06:05:10;;;;;;;34.60;18.00;;;;;;;7.27;83.01;98710.09;130860;1259;106982;-77
2023/11/11 06:08:15;;;;;;;35.30;18.00;;;;;;;7.26;83.00;98710.35;130819;1257;108826;-76
2023/11/11 06:11:21;;;;;;;29.70;16.60;;;;;;;7.28;82.85;98710.71;130755;1254;107682;-77
2023/11/11 06:14:27;;;;;;;30.20;16.50;;;;;;;7.31;83.13;98713.56;130662;1254;106990;-77
2023/11/11 06:17:33;;;;;;;22.70;14.90;;;;;;;7.34;83.04;98713.41;130793;1253;107227;-79
2023/11/11 06:20:38;;;;;;;23.10;15.40;;;;;;;7.37;83.17;98714.64;130753;1257;108353;-78
2023/11/11 06:23:44;;;;;;;24.00;15.00;;;;;;;7.40;82.94;98713.89;130806;1257;106948;-79
2023/11/11 06:26:49;;;;;;;30.40;19.70;;;;;;;7.43;83.02;98718.55;130694;1254;106019;-78
2023/11/11 06:29:55;;;;;;;23.00;16.00;;;;;;;7.46;82.88;98722.98;130787;1257;106222;-77
2023/11/11 06:33:00;;;;;;;21.70;13.90;;;;;;;7.48;83.14;98724.95;130737;1259;107550;-77
2023/11/11 06:36:10;;;;;;;18.60;12.00;;;;;;;7.49;83.14;98732.05;131049;1254;108642;-77
2023/11/11 06:39:16;;;;;;;21.00;13.60;;;;;;;7.53;83.34;98738.36;130923;1254;107939;-77
2023/11/11 06:42:22;;;;;;;23.30;14.80;;;;;;;7.60;83.32;98734.00;130820;1254;106181;-78
2023/11/11 06:45:27;;;;;;;22.20;14.00;;;;;;;7.67;83.37;98737.99;130709;1257;107242;-77
2023/11/11 06:48:33;;;;;;;25.60;16.60;;;;;;;7.74;83.33;98737.83;130892;1258;106327;-77
2023/11/11 06:51:38;;;;;;;25.10;17.30;;;;;;;7.79;83.45;98734.75;130973;1258;107858;-78
2023/11/11 06:54:46;;;;;;;24.10;15.60;;;;;;;7.83;83.50;98734.98;130925;1253;107698;-79
2023/11/11 06:57:52;;;;;;;21.30;15.60;;;;;;;7.88;83.35;98734.29;130893;1253;107030;-78
2023/11/11 07:00:58;;;;;;;20.50;13.10;;;;;;;7.90;83.57;98728.60;130882;1253;106673;-78
2023/11/11 07:04:04;;;;;;;19.60;12.60;;;;;;;7.91;83.68;98730.19;130934;1257;108529;-79
2023/11/11 07:07:12;;;;;;;21.80;14.00;;;;;;;7.97;83.91;98727.94;131251;1258;106981;-76
2023/11/11 07:10:17;;;;;;;22.90;14.80;;;;;;;8.05;83.96;98727.96;130910;1257;108475;-76
2023/11/11 07:13:23;;;;;;;22.30;15.30;;;;;;;8.13;84.03;98722.56;130862;1257;108545;-75
2023/11/11 07:16:28;;;;;;;21.90;15.30;;;;;;;8.22;84.01;98722.65;130919;1257;109534;-78
2023/11/11 07:19:35;;;;;;;22.80;16.30;;;;;;;8.31;84.05;98718.61;130764;1259;107610;-76
2023/11/11 07:22:40;;;;;;;25.50;16.70;;;;;;;8.36;84.02;98716.81;130778;1258;107598;-76
2023/11/11 07:25:46;;;;;;;26.80;16.90;;;;;;;8.40;84.24;98721.77;130769;1259;106640;-75
2023/11/11 07:28:52;;;;;;;25.20;16.10;;;;;;;8.44;84.38;98724.36;130676;1259;107039;-74
2023/11/11 07:32:00;;;;;;;26.20;19.10;;;;;;;8.50;84.56;98724.39;130769;1259;107534;-76
2023/11/11 07:35:10;;;;;;;34.70;20.20;;;;;;;8.57;84.43;98727.12;130669;1257;106934;-74
2023/11/11 07:38:20;;;;;;;28.90;21.40;;;;;;;8.64;84.46;98731.61;130702;1260;106458;-74
2023/11/11 07:41:25;;;;;;;29.90;20.50;;;;;;;8.71;84.51;98730.14;130734;1259;107109;-74
2023/11/11 07:44:32;;;;;;;37.20;24.00;;;;;;;8.77;84.48;98728.92;130730;1257;108504;-74
2023/11/11 07:47:38;;;;;;;42.10;29.00;;;;;;;8.81;84.44;98725.27;130610;1259;107116;-74
2023/11/11 07:50:45;;;;;;;35.00;21.60;;;;;;;8.79;84.72;98720.00;130636;1254;108534;-75
2023/11/11 07:53:51;;;;;;;30.50;19.60;;;;;;;8.81;84.69;98720.82;130674;1259;107722;-74
2023/11/11 07:56:57;;;;;;;36.20;23.50;;;;;;;8.81;85.02;98724.58;130990;1257;107728;-74
2023/11/11 08:00:05;;;;;;;34.90;23.50;;;;;;;8.80;85.12;98731.36;130876;1259;108629;-75
2023/11/11 08:03:13;;;;;;;32.00;23.10;;;;;;;8.84;85.19;98728.59;130876;1258;106017;-75
2023/11/11 08:06:19;;;;;;;35.30;25.00;;;;;;;8.94;85.43;98726.10;130838;1256;106462;-74
2023/11/11 08:09:24;;;;;;;54.70;33.40;;;;;;;9.06;85.00;98727.48;130872;1254;108383;-74
2023/11/11 08:12:30;;;;;;;56.20;35.10;;;;;;;9.07;84.96;98729.30;130764;1259;107713;-74
2023/11/11 08:15:36;;;;;;;47.10;30.00;;;;;;;9.04;84.90;98734.00;130764;1259;108605;-74
2023/11/11 08:18:42;;;;;;;37.00;25.20;;;;;;;9.05;85.35;98743.72;130673;1257;107407;-74
2023/11/11 08:21:48;;;;;;;46.60;32.60;;;;;;;9.11;85.25;98746.59;130731;1254;106785;-74
2023/11/11 08:24:53;;;;;;;40.90;27.30;;;;;;;9.18;85.30;98751.45;130728;1254;108477;-73
2023/11/11 08:27:59;;;;;;;53.70;39.40;;;;;;;9.20;85.12;98753.29;130768;1257;108599;-74
2023/11/11 08:31:04;;;;;;;44.00;28.10;;;;;;;9.14;85.15;98756.38;131034;1257;107017;-74
2023/11/11 08:34:10;;;;;;;39.70;27.10;;;;;;;9.15;85.23;98757.49;130794;1256;108427;-74
2023/11/11 08:37:16;;;;;;;37.40;25.30;;;;;;;9.16;85.36;98756.48;130729;1259;107159;-74
2023/11/11 08:40:22;;;;;;;36.80;22.50;;;;;;;9.21;85.47;98754.15;130951;1257;107714;-74
2023/11/11 08:43:27;;;;;;;39.40;25.50;;;;;;;9.31;85.68;98752.22;130888;1254;107523;-74
2023/11/11 08:46:33;;;;;;;45.50;30.70;;;;;;;9.44;85.78;98745.36;130681;1258;108509;-75
2023/11/11 08:49:38;;;;;;;44.30;30.30;;;;;;;9.56;85.30;98745.89;130881;1257;107735;-74
2023/11/11 08:52:44;;;;;;;51.50;34.60;;;;;;;9.66;85.26;98739.02;131006;1256;108487;-76
2023/11/11 08:55:50;;;;;;;67.70;46.90;;;;;;;9.72;84.75;98736.78;130754;1260;107513;-74
2023/11/11 08:58:56;;;;;;;52.60;36.60;;;;;;;9.75;85.01;98734.92;131294;1259;107275;-75
2023/11/11 09:02:01;;;;;;;42.50;28.30;;;;;;;9.76;84.92;98733.70;130715;1257;107094;-74
2023/11/11 09:05:09;;;;;;;75.70;38.60;;;;;;;9.73;84.91;98729.95;130882;1260;107525;-73
2023/11/11 09:08:15;;;;;;;72.00;40.90;;;;;;;9.78;85.13;98736.41;130764;1260;106719;-73
2023/11/11 09:11:21;;;;;;;135.20;81.90;;;;;;;9.84;85.18;98734.38;130711;1258;106742;-74
2023/11/11 09:14:26;;;;;;;52.90;34.30;;;;;;;9.79;85.02;98733.67;130782;1259;107795;-74
2023/11/11 09:17:32;;;;;;;78.90;51.40;;;;;;;9.73;84.93;98736.02;130654;1257;109239;-74
2023/11/11 09:20:38;;;;;;;48.70;32.10;;;;;;;9.71;85.25;98735.36;130732;1258;106972;-73
2023/11/11 09:23:46;;;;;;;44.00;31.40;;;;;;;9.68;85.55;98736.42;130709;1255;107373;-73
2023/11/11 09:26:53;;;;;;;132.90;80.50;;;;;;;9.62;85.18;98736.84;130726;1259;107522;-73
2023/11/11 09:29:58;;;;;;;128.70;81.10;;;;;;;9.50;85.56;98740.43;130639;1258;108480;-73
2023/11/11 09:33:04;;;;;;;48.90;32.80;;;;;;;9.45;85.72;98742.02;130837;1259;109119;-73
2023/11/11 09:36:10;;;;;;;98.50;77.10;;;;;;;9.43;85.75;98740.52;130696;1259;107386;-73
2023/11/11 09:39:17;;;;;;;65.90;53.00;;;;;;;9.45;85.35;98736.66;131305;1254;107040;-75
2023/11/11 09:42:22;;;;;;;75.60;54.50;;;;;;;9.46;85.83;98732.66;131301;1259;107725;-74
2023/11/11 09:45:28;;;;;;;49.20;35.40;;;;;;;9.53;85.66;98730.95;130707;1255;106686;-73
2023/11/11 09:48:34;;;;;;;45.30;31.30;;;;;;;9.56;85.53;98728.45;130792;1254;106397;-74
2023/11/11 09:51:41;;;;;;;44.20;29.90;;;;;;;9.64;85.29;98725.69;130656;1259;106696;-75
2023/11/11 09:54:48;;;;;;;58.50;41.20;;;;;;;9.71;85.23;98723.68;130853;1254;107529;-74
2023/11/11 09:57:54;;;;;;;51.30;34.50;;;;;;;9.70;85.25;98721.10;131131;1257;107085;-75
2023/11/11 10:00:59;;;;;;;49.00;34.20;;;;;;;9.72;85.44;98721.38;130752;1259;108301;-74
2023/11/11 10:04:06;;;;;;;51.10;35.80;;;;;;;9.75;85.26;98718.21;130795;1257;108599;-75
2023/11/11 10:07:12;;;;;;;47.70;34.70;;;;;;;9.75;85.53;98709.69;130708;1257;108717;-74
2023/11/11 10:10:19;;;;;;;60.80;43.20;;;;;;;9.85;85.49;98711.48;130745;1259;107720;-74
2023/11/11 10:13:25;;;;;;;47.20;31.80;;;;;;;9.98;85.49;98708.77;131036;1258;107141;-75
2023/11/11 10:16:32;;;;;;;54.60;36.30;;;;;;;10.06;84.84;98703.04;130605;1255;107780;-75
2023/11/11 10:19:42;;;;;;;50.90;36.00;;;;;;;10.10;85.13;98692.44;130882;1258;108641;-75
2023/11/11 10:22:49;;;;;;;51.90;36.80;;;;;;;10.19;85.14;98687.60;130789;1259;105720;-75
2023/11/11 10:25:58;;;;;;;53.20;38.40;;;;;;;10.17;84.89;98683.20;130792;1254;106791;-76
2023/11/11 10:29:08;;;;;;;57.40;39.10;;;;;;;10.20;84.43;98679.66;130770;1257;108319;-75
2023/11/11 10:32:13;;;;;;;45.00;34.00;;;;;;;10.17;84.74;98682.98;130781;1254;106443;-75
2023/11/11 10:35:20;;;;;;;51.40;34.80;;;;;;;10.11;84.51;98678.66;130711;1259;108486;-74
2023/11/11 10:38:26;;;;;;;45.20;31.10;;;;;;;10.12;84.37;98679.40;130928;1257;108597;-76
2023/11/11 10:41:32;;;;;;;41.80;29.00;;;;;;;10.17;84.59;98677.37;130715;1259;106687;-71
2023/11/11 10:44:37;;;;;;;43.80;29.80;;;;;;;10.19;84.93;98676.57;130627;1259;216788;-72
2023/11/11 10:47:44;;;;;;;42.50;29.30;;;;;;;10.24;84.74;98671.21;130694;1258;106128;-71
2023/11/11 10:50:52;;;;;;;42.40;31.50;;;;;;;10.29;84.41;98670.56;130907;1260;108619;-71
2023/11/11 10:54:00;;;;;;;42.10;30.90;;;;;;;10.38;85.06;98667.68;130973;1257;106817;-72
2023/11/11 10:57:07;;;;;;;51.10;36.20;;;;;;;10.49;84.79;98661.26;130814;1254;108563;-73
2023/11/11 11:00:19;;;;;;;41.70;28.70;;;;;;;10.50;84.37;98659.14;130846;1257;106128;-73
2023/11/11 11:03:24;;;;;;;;;;;;;;;10.53;83.94;98659.65;130960;1259;106905;-75
2023/11/11 11:06:35;;;;;;;42.90;30.50;;;;;;;10.51;83.81;98657.75;130673;1257;107743;-71
2023/11/11 11:09:50;;;;;;;44.10;30.60;;;;;;;10.50;84.23;98658.35;130811;1254;107915;-72
2023/11/11 11:13:02;;;;;;;51.50;36.20;;;;;;;10.55;83.89;98655.98;130785;1259;107687;-71
2023/11/11 11:16:12;;;;;;;49.10;34.40;;;;;;;10.60;83.93;98652.45;130838;1260;107949;-73
2023/11/11 11:19:19;;;;;;;44.20;32.40;;;;;;;10.62;83.78;98651.94;130797;1259;106600;-71
2023/11/11 11:22:33;;;;;;;43.80;32.90;;;;;;;10.64;83.58;98654.69;130874;1259;107641;-71
2023/11/11 11:25:41;;;;;;;43.30;31.70;;;;;;;10.63;83.69;98651.54;131075;1254;108703;-73
2023/11/11 11:29:12;;;;;;;40.90;29.10;;;;;;;10.58;83.74;98654.52;131913;1254;108723;-74
2023/11/11 11:32:25;;;;;;;42.30;31.50;;;;;;;10.60;83.36;98656.73;131124;1254;107364;-72
2023/11/11 11:35:30;;;;;;;41.60;29.80;;;;;;;10.59;83.69;98655.45;130843;1259;108206;-71
2023/11/11 11:38:38;;;;;;;45.30;32.20;;;;;;;10.59;83.12;98662.05;130803;1259;108594;-72
2023/11/11 11:41:46;;;;;;;43.30;32.10;;;;;;;10.55;83.46;98665.08;130802;1260;107248;-71
2023/11/11 11:44:58;;;;;;;40.30;30.60;;;;;;;10.57;83.53;98662.45;130744;1254;107841;-72
2023/11/11 11:48:05;;;;;;;44.30;31.90;;;;;;;10.57;82.89;98660.67;130711;1259;107767;-72
2023/11/11 11:51:12;;;;;;;42.00;30.20;;;;;;;10.50;83.01;98666.23;130804;1259;108417;-71
2023/11/11 11:54:18;;;;;;;38.40;27.60;;;;;;;10.47;82.91;98665.21;130885;1254;107627;-71
2023/11/11 11:57:23;;;;;;;48.30;33.80;;;;;;;10.37;82.32;98664.93;131017;1257;106648;-71
2023/11/11 12:00:29;;;;;;;52.10;37.90;;;;;;;10.30;82.72;98662.79;130693;1257;107095;-74
2023/11/11 12:03:34;;;;;;;45.90;33.50;;;;;;;10.32;83.08;98660.45;130835;1257;108649;-71
2023/11/11 12:06:42;;;;;;;53.70;37.80;;;;;;;10.32;82.56;98658.23;130700;1257;108494;-72
2023/11/11 12:09:55;;;;;;;60.40;46.00;;;;;;;10.27;82.86;98658.40;130790;1258;107768;-74
2023/11/11 12:13:05;;;;;;;47.60;36.80;;;;;;;10.29;83.03;98657.60;130720;1259;106478;-72
2023/11/11 12:16:11;;;;;;;43.30;31.90;;;;;;;10.29;83.11;98654.48;130759;1257;108411;-72
2023/11/11 12:19:18;;;;;;;55.60;37.00;;;;;;;10.31;82.61;98653.01;130670;1269;107398;-72
2023/11/11 12:22:23;;;;;;;47.20;33.10;;;;;;;10.29;82.95;98654.77;130709;1260;107900;-71
2023/11/11 12:25:29;;;;;;;59.00;40.60;;;;;;;10.35;83.33;98655.14;130782;1258;109350;-74
2023/11/11 12:28:35;;;;;;;60.50;40.00;;;;;;;10.39;82.50;98656.70;130748;1253;107873;-72
2023/11/11 12:31:48;;;;;;;57.50;39.50;;;;;;;10.34;82.76;98656.65;131148;1254;106397;-72
2023/11/11 12:34:54;;;;;;;57.50;38.20;;;;;;;10.32;83.05;98656.67;130749;1260;108437;-71
2023/11/11 12:38:01;;;;;;;44.00;30.70;;;;;;;10.36;82.91;98658.88;130843;1257;106345;-71
2023/11/11 12:41:14;;;;;;;58.50;38.60;;;;;;;10.34;82.68;98660.55;130871;1254;108573;-72
2023/11/11 12:44:20;;;;;;;39.80;27.00;;;;;;;10.26;83.09;98663.48;130818;1260;107804;-71
2023/11/11 12:47:26;;;;;;;38.90;28.30;;;;;;;10.29;83.12;98662.25;130918;1254;107720;-71
2023/11/11 12:50:35;;;;;;;37.90;27.00;;;;;;;10.35;83.08;98665.23;130919;1258;108635;-72
2023/11/11 12:53:45;;;;;;;48.20;32.40;;;;;;;10.40;82.75;98667.65;131065;1259;106858;-71
2023/11/11 12:56:53;;;;;;;75.30;49.20;;;;;;;10.35;82.86;98665.20;130993;1259;106756;-72
2023/11/11 13:00:00;;;;;;;69.40;44.70;;;;;;;10.34;82.99;98662.39;130767;1259;107116;-71
2023/11/11 13:03:06;;;;;;;55.20;37.10;;;;;;;10.32;82.72;98661.27;130741;1263;107950;-72
2023/11/11 13:06:14;;;;;;;47.70;33.80;;;;;;;10.31;82.85;98658.79;130791;1259;107009;-71
2023/11/11 13:09:21;;;;;;;57.00;36.90;;;;;;;10.27;83.08;98661.43;130763;1258;106655;-72
2023/11/11 13:12:27;;;;;;;44.20;30.60;;;;;;;10.19;82.72;98663.20;130764;1254;106558;-72
2023/11/11 13:15:33;;;;;;;49.60;36.00;;;;;;;10.14;82.88;98663.64;130857;1258;106978;-72
2023/11/11 13:18:39;;;;;;;53.50;37.80;;;;;;;10.10;82.70;98661.38;130921;1260;108691;-72
2023/11/11 13:21:44;;;;;;;54.10;38.20;;;;;;;10.09;82.50;98661.79;130778;1259;107362;-72
2023/11/11 13:24:50;;;;;;;54.90;40.00;;;;;;;10.04;82.06;98663.16;130806;1254;107334;-72
2023/11/11 13:27:56;;;;;;;50.90;36.30;;;;;;;9.96;82.28;98665.63;130785;1259;106868;-71
2023/11/11 13:31:01;;;;;;;49.00;35.60;;;;;;;9.87;82.46;98664.05;130858;1254;108370;-73
2023/11/11 13:34:10;;;;;;;49.00;35.30;;;;;;;9.80;82.16;98664.71;131014;1258;107750;-72
2023/11/11 13:37:17;;;;;;;48.30;32.40;;;;;;;9.70;82.22;98669.39;130921;1258;106963;-71
2023/11/11 13:40:28;;;;;;;46.60;32.60;;;;;;;9.59;82.40;98671.26;130889;1263;106878;-71
2023/11/11 13:43:34;;;;;;;59.40;39.10;;;;;;;9.57;82.41;98672.27;130764;1267;107876;-73
2023/11/11 13:46:39;;;;;;;57.60;38.80;;;;;;;9.57;82.26;98675.31;130638;1264;108199;-73
2023/11/11 13:49:45;;;;;;;56.20;40.40;;;;;;;9.56;82.65;98673.05;130602;1258;106580;-74
2023/11/11 13:52:50;;;;;;;55.80;39.30;;;;;;;9.58;82.64;98673.61;130708;1259;107719;-74
2023/11/11 13:55:58;;;;;;;60.80;41.50;;;;;;;9.57;82.49;98676.34;130754;1258;106662;-72
2023/11/11 13:59:04;;;;;;;66.50;43.70;;;;;;;9.53;82.36;98673.08;131085;1259;106804;-73
2023/11/11 14:02:11;;;;;;;54.30;35.10;;;;;;;9.52;82.58;98674.08;130727;1260;106793;-73
2023/11/11 14:05:20;;;;;;;44.00;29.70;;;;;;;9.54;82.59;98677.79;130752;1260;107177;-73